Rock Springs, WY

4:19 PM MDT on August 27, 2016 (GMT -0600)
Rock Springs-Sweetwater | | Change Station
Active Advisory: Fire Weather Warning Active Notice: Record Report

Elev 6759 ft 41.59 °N, 109.05 °W | Updated 25 minutes ago

Clear
Clear
76 °F
Feels Like 76 °F
N
10
Wind Variable Wind from WSW
Gusts 22 mph

Today
High -- | Low -- °F
--% Chance of Precip.
Yesterday
High -- | Low -- °F
Precip. -- in
Pressure 29.90 in
Visibility 10.0 miles
Clouds Clear
Dew Point 18 °F
Humidity 11%
Rainfall 0.00 in
Snow Depth Not available.
6:37 AM 7:56 PM
Waning Crescent, 21% visible
METAR KRKS 272154Z AUTO 24009G19KT 10SM CLR 24/M08 A3013 RMK AO2 SLP124 T02441078
Pressure 29.90 in
Visibility 10.0 miles
Clouds Clear
Dew Point 18 °F
Humidity 11%
Rainfall 0.00 in
Snow Depth Not available.
6:37 AM 7:56 PM
Waning Crescent, 21% visible
METAR KRKS 272154Z AUTO 24009G19KT 10SM CLR 24/M08 A3013 RMK AO2 SLP124 T02441078

10-Day Weather Forecast

Almanac

Astronomy

Aug. 27, 2016 Rise Set
Actual Time
Civil Twilight
Nautical Twilight
Astronomical Twilight
Moon
Length of Visible Light
Length of Day
Tomorrow will be .
, % of the Moon is Illuminated

Today's Extremes

State Highs State Lows

Community

WunderPhotos

Upload Photos

1,935,455 photos uploaded!

WunderBlog® & News

Nearby

Air Quality

  Air Quality AQ Index Pollutant
Not available.

Snow Depth

Station Depth Elevation

Earthquake Activity

City Distance Mag. Time & Date
Minimum magnitude displayed is 2.5.

Coastal Water Temperatures

Place Temperature

Stations

Nearby Weather Stations

Station Location Temp. Windchill Dew Point Humidity Wind Precip. Elev Updated Type
                   

Watches & Warnings

Fire Weather Warning
Issued: 1:46 PM MDT Aug. 27, 2016 – National Weather Service

... Red flag warning remains in effect until 8 PM MDT this evening
for low humidity... strong wind gusts... and critically dry fuels
for fire weather zones 277... 278 and 279...

* wind... southwest 10 to 15 with gusts to 25 mph in the
afternoon and early evening hours.

* Humidity... 10 to 15 percent.

* Impacts... any fires that develop will likely spread rapidly.
Outdoor burning is strongly discouraged.

Precautionary/preparedness actions...

A red flag warning means that critical fire weather conditions
are either occurring now... .or will shortly. A combination of
strong winds... low relative humidity... and warm temperatures can
contribute to extreme fire behavior.